createdAt,value
2018-04-18T00:01:21.404Z,15.50
2018-04-18T00:03:50.598Z,14.00
2018-04-18T00:06:19.994Z,14.30
2018-04-18T00:08:49.213Z,13.80
2018-04-18T00:11:18.411Z,13.83
2018-04-18T00:13:47.670Z,14.33
2018-04-18T00:16:16.889Z,13.37
2018-04-18T00:18:46.124Z,13.57
2018-04-18T00:21:15.341Z,14.00
2018-04-18T00:23:45.384Z,14.57
2018-04-18T00:26:14.598Z,14.07
2018-04-18T00:28:43.833Z,14.60
2018-04-18T00:31:14.875Z,14.67
2018-04-18T00:33:44.127Z,14.27
2018-04-18T00:36:13.341Z,13.27
2018-04-18T00:38:42.570Z,13.67
2018-04-18T00:41:11.893Z,13.80
2018-04-18T00:43:41.887Z,11.67
2018-04-18T00:46:11.093Z,11.53
2018-04-18T00:48:40.316Z,12.67
2018-04-18T00:51:09.890Z,11.77
2018-04-18T00:53:39.149Z,11.53
2018-04-18T00:56:08.372Z,11.60
2018-04-18T00:58:37.744Z,12.70
2018-04-18T01:01:07.693Z,12.90
2018-04-18T01:03:36.907Z,11.63
2018-04-18T01:06:06.131Z,12.40
2018-04-18T01:08:35.600Z,11.37
2018-04-18T01:11:04.814Z,10.80
2018-04-18T01:13:34.790Z,10.93
2018-04-18T01:16:04.021Z,10.87
2018-04-18T01:18:34.022Z,11.13
2018-04-18T01:21:03.267Z,10.03
2018-04-18T01:23:32.480Z,9.73
2018-04-18T01:26:01.693Z,9.87
2018-04-18T01:28:30.897Z,10.77
2018-04-18T01:31:00.929Z,11.40
2018-04-18T01:33:30.916Z,10.87
2018-04-18T01:36:00.314Z,10.30
2018-04-18T01:38:29.525Z,12.77
2018-04-18T01:40:58.774Z,11.47
2018-04-18T01:43:28.033Z,10.97
2018-04-18T01:45:57.327Z,10.80
2018-04-18T01:48:26.526Z,11.17
2018-04-18T01:50:55.781Z,10.40
2018-04-18T01:53:25.002Z,11.10
2018-04-18T01:55:54.217Z,11.17
2018-04-18T01:58:23.453Z,10.60
2018-04-18T02:00:52.709Z,11.53
2018-04-18T02:03:21.938Z,10.77
2018-04-18T02:05:51.153Z,10.17
2018-04-18T02:08:20.371Z,10.20
2018-04-18T02:10:49.581Z,11.70
2018-04-18T02:13:18.801Z,10.33
2018-04-18T02:15:48.183Z,11.30
2018-04-18T02:18:17.479Z,10.97
2018-04-18T02:20:47.451Z,10.80
2018-04-18T02:23:16.661Z,12.30
2018-04-18T02:25:45.885Z,11.20
2018-04-18T02:28:15.104Z,10.60
2018-04-18T02:30:44.308Z,11.90
2018-04-18T02:33:13.534Z,11.40
2018-04-18T02:35:42.739Z,11.50
2018-04-18T02:38:12.742Z,11.03
2018-04-18T02:40:41.979Z,10.27
2018-04-18T02:43:11.224Z,12.10
2018-04-18T02:45:40.441Z,11.80
2018-04-18T02:48:09.652Z,11.30
2018-04-18T02:50:39.690Z,12.13
2018-04-18T02:53:08.973Z,11.43
2018-04-18T02:55:38.214Z,12.93
2018-04-18T02:58:07.600Z,11.07
2018-04-18T03:00:37.577Z,12.17
2018-04-18T03:03:07.568Z,11.33
2018-04-18T03:05:36.923Z,10.53
2018-04-18T03:08:06.946Z,11.60
2018-04-18T03:10:36.172Z,11.23
2018-04-18T03:13:05.461Z,12.43
2018-04-18T03:15:34.753Z,12.70
2018-04-18T03:18:04.025Z,12.10
2018-04-18T03:20:33.245Z,12.50
2018-04-18T03:23:02.574Z,12.83
2018-04-18T03:25:31.775Z,13.07
2018-04-18T03:28:00.997Z,12.57
2018-04-18T03:30:30.994Z,13.40
2018-04-18T03:33:00.285Z,13.30
2018-04-18T03:35:30.466Z,13.17
2018-04-18T03:38:00.333Z,13.17
2018-04-18T03:40:29.594Z,12.20
2018-04-18T03:42:58.850Z,12.60
2018-04-18T03:45:28.858Z,12.87
2018-04-18T03:47:58.118Z,12.07
2018-04-18T03:50:27.400Z,13.00
2018-04-18T03:52:56.638Z,14.07
2018-04-18T03:55:25.877Z,13.30
2018-04-18T03:57:55.099Z,13.27
2018-04-18T04:00:24.314Z,13.80
2018-04-18T04:02:53.567Z,13.83
2018-04-18T04:05:22.849Z,13.00
2018-04-18T04:07:52.055Z,14.00
2018-04-18T04:10:22.049Z,13.17
2018-04-18T04:12:51.291Z,13.60
2018-04-18T04:15:20.507Z,13.43
2018-04-18T04:18:07.575Z,13.97
2018-04-18T04:20:54.446Z,13.13
2018-04-18T04:23:41.320Z,13.83
2018-04-18T04:26:10.586Z,12.60
2018-04-18T04:28:39.838Z,14.80
2018-04-18T04:31:09.073Z,12.50
2018-04-18T04:33:39.195Z,12.77
2018-04-18T04:36:08.459Z,12.70
2018-04-18T04:38:37.707Z,14.20
2018-04-18T04:41:07.697Z,13.77
2018-04-18T04:43:38.458Z,13.50
2018-04-18T04:46:08.446Z,12.90
2018-04-18T04:48:37.673Z,12.97
2018-04-18T04:51:07.662Z,13.50
2018-04-18T04:53:36.879Z,13.20
2018-04-18T04:56:06.888Z,13.60
2018-04-18T04:58:36.086Z,13.27
2018-04-18T05:01:05.313Z,13.47
2018-04-18T05:03:34.736Z,13.67
2018-04-18T05:06:03.969Z,14.27
2018-04-18T05:08:33.180Z,13.37
2018-04-18T05:11:02.467Z,13.30
2018-04-18T05:13:31.842Z,14.67
2018-04-18T05:16:01.068Z,13.40
2018-04-18T05:18:30.301Z,13.60
2018-04-18T05:20:59.524Z,12.50
2018-04-18T05:23:28.733Z,14.50
2018-04-18T05:25:58.025Z,12.30
2018-04-18T05:28:28.037Z,12.30
2018-04-18T05:30:57.294Z,13.03
2018-04-18T05:33:26.495Z,13.70
2018-04-18T05:35:56.571Z,12.70
2018-04-18T05:38:25.792Z,13.23
2018-04-18T05:40:55.017Z,12.77
2018-04-18T05:43:25.136Z,11.87
2018-04-18T05:45:55.137Z,12.50
2018-04-18T05:48:24.562Z,12.37
2018-04-18T05:50:54.530Z,12.50
2018-04-18T05:53:23.774Z,13.30
2018-04-18T05:55:53.741Z,12.33
2018-04-18T05:58:23.000Z,11.47
2018-04-18T06:00:52.204Z,12.80
2018-04-18T06:03:21.453Z,13.50
2018-04-18T06:05:50.685Z,12.67
2018-04-18T06:08:19.978Z,14.00
2018-04-18T06:10:49.995Z,12.60
2018-04-18T06:13:19.989Z,11.57
2018-04-18T06:15:49.223Z,12.77
2018-04-18T06:18:18.485Z,11.77
2018-04-18T06:20:48.513Z,12.90
2018-04-18T06:23:18.558Z,12.40
2018-04-18T06:25:47.873Z,11.77
2018-04-18T06:28:17.090Z,12.30
2018-04-18T06:30:46.341Z,11.40
2018-04-18T06:33:15.566Z,14.07
2018-04-18T06:35:44.793Z,12.20
2018-04-18T06:38:14.025Z,13.50
2018-04-18T06:40:43.997Z,12.63
2018-04-18T06:43:13.275Z,12.67
2018-04-18T06:45:43.297Z,12.60
2018-04-18T06:48:12.667Z,11.70
2018-04-18T06:50:42.735Z,13.27
2018-04-18T06:53:11.993Z,12.60
2018-04-18T06:55:41.218Z,11.90
2018-04-18T06:58:10.519Z,12.53
2018-04-18T07:00:39.758Z,13.20
2018-04-18T07:03:09.026Z,12.90
2018-04-18T07:05:38.297Z,12.90
2018-04-18T07:08:07.495Z,12.20
2018-04-18T07:10:36.743Z,12.97
2018-04-18T07:13:05.967Z,12.30
2018-04-18T07:15:35.205Z,12.90
2018-04-18T07:18:04.446Z,13.17
2018-04-18T07:20:34.510Z,13.50
2018-04-18T07:23:03.749Z,13.63
2018-04-18T07:25:33.746Z,12.40
2018-04-18T07:28:03.074Z,12.00
2018-04-18T07:30:32.274Z,12.33
2018-04-18T07:33:01.560Z,11.83
2018-04-18T07:35:30.865Z,12.03
2018-04-18T07:38:00.177Z,12.80
2018-04-18T07:40:30.165Z,13.10
2018-04-18T07:42:59.422Z,12.67
2018-04-18T07:45:28.771Z,12.43
2018-04-18T07:47:57.992Z,12.93
2018-04-18T07:50:27.980Z,12.80
2018-04-18T07:52:57.189Z,13.00
2018-04-18T07:55:26.484Z,14.27
2018-04-18T07:57:55.722Z,13.17
2018-04-18T08:00:25.040Z,14.40
2018-04-18T08:02:54.253Z,14.93
2018-04-18T08:05:23.615Z,14.53
2018-04-18T08:07:52.808Z,16.23
2018-04-18T08:10:22.816Z,18.43
2018-04-18T08:12:52.086Z,15.93
2018-04-18T08:15:21.358Z,15.90
2018-04-18T08:17:51.322Z,15.73
2018-04-18T08:20:21.325Z,15.97
2018-04-18T08:22:50.657Z,14.23
2018-04-18T08:25:21.797Z,15.57
2018-04-18T08:27:57.519Z,15.10
2018-04-18T08:30:26.795Z,14.67
2018-04-18T08:32:56.017Z,16.20
2018-04-18T08:35:25.252Z,15.50
2018-04-18T08:37:54.499Z,17.07
2018-04-18T08:40:23.734Z,15.03
2018-04-18T08:42:53.731Z,15.90
2018-04-18T08:45:22.982Z,16.33
2018-04-18T08:47:52.222Z,17.03
2018-04-18T08:50:21.429Z,14.67
2018-04-18T08:52:50.659Z,14.57
2018-04-18T08:55:19.917Z,15.87
2018-04-18T08:57:49.156Z,13.10
2018-04-18T09:00:18.418Z,13.53
2018-04-18T09:02:47.972Z,15.77
2018-04-18T09:05:17.225Z,11.37
2018-04-18T09:07:47.217Z,14.00
2018-04-18T09:10:19.120Z,12.80
2018-04-18T09:12:48.348Z,14.53
2018-04-18T09:15:17.567Z,14.97
2018-04-18T09:17:46.858Z,15.13
2018-04-18T09:20:16.105Z,14.10
2018-04-18T09:22:46.105Z,15.90
2018-04-18T09:25:16.110Z,17.03
2018-04-18T09:27:45.506Z,16.37
2018-04-18T09:30:14.743Z,17.60
2018-04-18T09:32:43.986Z,16.60
2018-04-18T09:35:13.227Z,20.10
2018-04-18T09:37:42.495Z,18.20
2018-04-18T09:40:11.767Z,19.07
2018-04-18T09:42:42.125Z,19.00
2018-04-18T09:45:11.341Z,20.53
2018-04-18T09:47:40.623Z,20.73
2018-04-18T09:50:09.846Z,23.10
2018-04-18T09:52:39.201Z,23.13
2018-04-18T09:55:08.486Z,22.37
2018-04-18T09:57:37.708Z,23.03
2018-04-18T10:00:07.720Z,24.50
2018-04-18T10:02:37.660Z,26.50
2018-04-18T10:05:08.692Z,25.40
2018-04-18T10:07:37.923Z,24.97
2018-04-18T10:10:07.147Z,25.40
2018-04-18T10:12:36.389Z,27.27
2018-04-18T10:15:05.604Z,24.47
2018-04-18T10:17:35.593Z,24.43
2018-04-18T10:20:04.847Z,23.73
2018-04-18T10:22:34.114Z,22.20
2018-04-18T10:25:04.142Z,25.20
2018-04-18T10:27:33.439Z,21.60
2018-04-18T10:30:03.434Z,23.93
2018-04-18T10:32:32.662Z,23.63
2018-04-18T10:35:01.962Z,20.40
2018-04-18T10:37:31.568Z,21.10
2018-04-18T10:40:00.808Z,21.77
2018-04-18T10:42:30.061Z,25.10
2018-04-18T10:44:59.325Z,22.57
2018-04-18T10:47:28.556Z,22.10
2018-04-18T10:49:57.858Z,23.57
2018-04-18T10:52:27.184Z,23.30
2018-04-18T10:54:56.515Z,24.30
2018-04-18T10:57:25.760Z,24.70
2018-04-18T10:59:55.861Z,23.57
2018-04-18T11:02:25.357Z,20.97
2018-04-18T11:04:54.682Z,24.23
2018-04-18T11:07:23.945Z,22.70
2018-04-18T11:09:54.703Z,25.23
2018-04-18T11:12:24.740Z,23.30
2018-04-18T11:14:53.948Z,22.30
2018-04-18T11:17:24.785Z,21.87
2018-04-18T11:19:53.998Z,20.60
2018-04-18T11:22:23.248Z,20.90
2018-04-18T11:24:53.306Z,22.53
2018-04-18T11:27:22.552Z,20.90
2018-04-18T11:29:52.532Z,22.40
2018-04-18T11:32:21.808Z,20.73
2018-04-18T11:34:51.050Z,21.73
2018-04-18T11:37:21.133Z,20.80
2018-04-18T11:39:50.443Z,22.13
2018-04-18T11:42:19.655Z,19.90
2018-04-18T11:44:48.893Z,20.20
2018-04-18T11:47:18.993Z,21.07
2018-04-18T11:49:48.202Z,20.77
2018-04-18T11:52:18.238Z,20.00
2018-04-18T11:54:47.717Z,18.27
2018-04-18T11:57:17.731Z,19.20
2018-04-18T11:59:46.987Z,21.07
2018-04-18T12:02:16.253Z,20.80
2018-04-18T12:04:46.299Z,17.70
2018-04-18T12:07:15.531Z,17.73
2018-04-18T12:09:44.805Z,20.40
2018-04-18T12:12:14.060Z,21.37
2018-04-18T12:14:44.112Z,20.27
2018-04-18T12:17:13.431Z,19.60
2018-04-18T12:19:44.228Z,19.20
2018-04-18T12:22:14.252Z,17.73
2018-04-18T12:24:43.452Z,18.10
2018-04-18T12:27:12.685Z,20.00
2018-04-18T12:29:41.934Z,17.20
2018-04-18T12:32:11.167Z,17.47
2018-04-18T12:34:40.659Z,18.80
2018-04-18T12:37:09.926Z,18.87
2018-04-18T12:39:39.187Z,18.00
2018-04-18T12:42:08.447Z,18.40
2018-04-18T12:44:37.695Z,18.50
2018-04-18T12:47:06.927Z,19.30
2018-04-18T12:49:36.273Z,19.97
2018-04-18T12:52:07.197Z,17.40
2018-04-18T12:54:36.409Z,17.87
2018-04-18T12:57:06.998Z,18.43
2018-04-18T12:59:36.228Z,19.73
2018-04-18T13:02:05.493Z,18.30
2018-04-18T13:04:34.981Z,18.60
2018-04-18T13:07:05.000Z,17.80
2018-04-18T13:09:34.227Z,17.53
2018-04-18T13:12:03.493Z,20.23
2018-04-18T13:14:32.708Z,20.60
2018-04-18T13:17:02.443Z,20.17
2018-04-18T13:19:31.652Z,19.63
2018-04-18T13:22:00.970Z,21.83
2018-04-18T13:24:31.139Z,19.60
2018-04-18T13:27:00.390Z,22.40
2018-04-18T13:29:30.433Z,21.47
2018-04-18T13:31:59.669Z,20.63
2018-04-18T13:34:28.895Z,21.87
2018-04-18T13:36:58.153Z,21.90
2018-04-18T13:39:27.440Z,22.43
2018-04-18T13:41:56.698Z,20.30
2018-04-18T13:44:25.948Z,22.10
2018-04-18T13:46:55.333Z,20.80
2018-04-18T13:49:24.697Z,23.33
2018-04-18T13:51:53.986Z,21.90
2018-04-18T13:54:23.190Z,22.23
2018-04-18T13:56:52.507Z,24.73
2018-04-18T13:59:22.523Z,22.80
2018-04-18T14:01:52.521Z,21.90
2018-04-18T14:04:21.759Z,20.50
2018-04-18T14:06:51.739Z,23.50
2018-04-18T14:09:21.137Z,24.40
2018-04-18T14:11:50.355Z,22.63
2018-04-18T14:14:20.409Z,21.87
2018-04-18T14:16:49.804Z,20.47
2018-04-18T14:19:19.078Z,21.10
2018-04-18T14:21:49.070Z,19.17
2018-04-18T14:24:18.307Z,19.60
2018-04-18T14:26:47.530Z,18.43
2018-04-18T14:29:16.768Z,19.97
2018-04-18T14:31:45.983Z,18.57
2018-04-18T14:34:16.002Z,18.53
2018-04-18T14:36:46.032Z,20.03
2018-04-18T14:39:15.262Z,18.80
2018-04-18T14:41:44.573Z,20.03
2018-04-18T14:44:13.790Z,18.03
2018-04-18T14:46:43.315Z,18.40
2018-04-18T14:49:12.577Z,19.80
2018-04-18T14:51:41.831Z,18.60
2018-04-18T14:54:11.121Z,20.47
2018-04-18T14:56:40.370Z,19.60
2018-04-18T14:59:09.651Z,19.53
2018-04-18T15:01:38.933Z,18.30
2018-04-18T15:04:08.163Z,19.53
2018-04-18T15:06:37.391Z,17.20
2018-04-18T15:09:06.638Z,18.20
2018-04-18T15:11:36.301Z,20.17
2018-04-18T15:14:06.393Z,20.13
2018-04-18T15:16:35.651Z,19.63
2018-04-18T15:19:04.975Z,18.97
2018-04-18T15:21:34.206Z,18.70
2018-04-18T15:24:03.453Z,17.10
2018-04-18T15:26:32.679Z,18.10
2018-04-18T15:29:01.896Z,16.57
2018-04-18T15:31:31.242Z,19.17
2018-04-18T15:34:00.483Z,17.60
2018-04-18T15:36:29.753Z,17.67
2018-04-18T15:38:59.015Z,17.73
2018-04-18T15:41:29.035Z,17.17
2018-04-18T15:43:59.205Z,17.47
2018-04-18T15:46:28.451Z,17.90
2018-04-18T15:48:58.450Z,18.80
2018-04-18T16:04:27.841Z,14.63
2018-04-18T16:06:57.210Z,15.60
2018-04-18T16:09:26.446Z,16.77
2018-04-18T16:11:55.773Z,17.50
2018-04-18T16:14:24.993Z,16.47
2018-04-18T16:16:54.255Z,17.53
2018-04-18T16:19:23.575Z,17.50
2018-04-18T16:21:53.702Z,16.10
2018-04-18T16:24:22.923Z,16.77
2018-04-18T16:26:52.193Z,15.67
2018-04-18T16:29:39.295Z,16.67
2018-04-18T16:32:08.519Z,16.00
2018-04-18T16:34:37.761Z,15.70
2018-04-18T16:37:07.115Z,16.30
2018-04-18T16:39:36.561Z,16.17
2018-04-18T16:42:05.860Z,14.10
2018-04-18T16:44:35.116Z,15.03
2018-04-18T16:47:04.352Z,15.43
2018-04-18T16:49:33.557Z,13.77
2018-04-18T16:52:03.677Z,14.37
2018-04-18T16:54:33.720Z,13.97
2018-04-18T16:57:03.772Z,15.07
2018-04-18T16:59:32.996Z,12.93
2018-04-18T17:02:02.261Z,14.20
2018-04-18T17:04:31.609Z,12.63
2018-04-18T17:07:00.855Z,13.03
2018-04-18T17:09:30.159Z,13.33
2018-04-18T17:11:59.413Z,13.93
2018-04-18T17:14:29.597Z,12.73
2018-04-18T17:16:58.888Z,13.43
2018-04-18T17:19:28.140Z,12.53
2018-04-18T17:21:58.174Z,12.90
2018-04-18T17:24:27.486Z,12.17
2018-04-18T17:26:56.727Z,14.07
2018-04-18T17:29:25.949Z,12.03
2018-04-18T17:31:55.973Z,13.20
2018-04-18T17:34:26.030Z,12.53
2018-04-18T17:36:55.525Z,12.80
2018-04-18T17:39:24.753Z,11.27
2018-04-18T17:41:53.950Z,13.30
2018-04-18T17:44:24.043Z,11.90
2018-04-18T17:46:53.292Z,12.13
2018-04-18T17:49:22.517Z,12.17
2018-04-18T17:51:51.778Z,13.80
2018-04-18T17:54:21.057Z,12.63
2018-04-18T17:56:50.296Z,12.37
2018-04-18T17:59:20.292Z,12.80
2018-04-18T18:01:49.562Z,13.60
2018-04-18T18:04:18.816Z,14.27
2018-04-18T18:06:48.803Z,13.20
2018-04-18T18:09:18.031Z,13.30
2018-04-18T18:11:47.482Z,14.03
2018-04-18T18:14:17.040Z,14.00
2018-04-18T18:16:46.288Z,13.13
2018-04-18T18:19:15.585Z,16.63
2018-04-18T18:21:44.833Z,15.80
2018-04-18T18:24:14.083Z,15.10
2018-04-18T18:26:44.094Z,18.40
2018-04-18T18:29:13.343Z,78.37
2018-04-18T18:31:42.619Z,85.87
2018-04-18T18:34:12.968Z,33.53
2018-04-18T18:36:42.238Z,20.43
2018-04-18T18:39:12.337Z,17.27
2018-04-18T18:41:41.726Z,16.37
2018-04-18T18:44:10.969Z,15.40
2018-04-18T18:46:40.995Z,15.53
2018-04-18T18:49:10.376Z,14.57
2018-04-18T18:51:39.629Z,15.50
2018-04-18T18:54:08.909Z,14.23
2018-04-18T19:09:38.199Z,12.60
2018-04-18T19:12:07.594Z,13.37
2018-04-18T19:14:36.827Z,13.70
2018-04-18T19:17:06.107Z,13.70
2018-04-18T19:19:35.419Z,13.40
2018-04-18T19:22:04.719Z,11.53
2018-04-18T19:24:33.961Z,11.10
2018-04-18T19:27:03.330Z,12.40
2018-04-18T19:29:32.636Z,12.27
2018-04-18T19:32:01.871Z,12.37
2018-04-18T19:34:31.930Z,11.60
2018-04-18T19:37:01.176Z,12.83
2018-04-18T19:39:30.703Z,13.80
2018-04-18T19:42:00.401Z,13.07
2018-04-18T19:44:29.647Z,15.50
2018-04-18T19:46:58.877Z,14.10
2018-04-18T19:49:28.118Z,14.37
2018-04-18T19:51:57.395Z,15.10
2018-04-18T19:54:26.686Z,14.17
2018-04-18T19:56:56.710Z,14.20
2018-04-18T19:59:26.778Z,16.00
2018-04-18T20:01:56.011Z,15.10
2018-04-18T20:04:25.284Z,15.00
2018-04-18T20:06:54.587Z,15.17
2018-04-18T20:09:23.868Z,14.50
2018-04-18T20:11:53.118Z,14.80
2018-04-18T20:14:23.108Z,14.70
2018-04-18T20:16:52.423Z,15.90
2018-04-18T20:19:21.597Z,15.10
2018-04-18T20:21:50.878Z,15.57
2018-04-18T20:24:20.126Z,15.80
2018-04-18T20:26:49.383Z,16.17
2018-04-18T20:29:19.063Z,15.50
2018-04-18T20:31:48.354Z,16.30
2018-04-18T20:34:17.723Z,16.00
2018-04-18T20:36:51.570Z,16.83
2018-04-18T20:39:20.761Z,14.77
2018-04-18T20:41:56.761Z,16.20
2018-04-18T20:44:25.994Z,15.23
2018-04-18T20:46:56.012Z,15.47
2018-04-18T20:49:26.021Z,16.17
2018-04-18T20:51:56.086Z,15.70
2018-04-18T20:54:25.318Z,15.90
2018-04-18T20:56:54.587Z,16.70
2018-04-18T20:59:23.780Z,17.13
2018-04-18T21:01:53.012Z,16.70
2018-04-18T21:04:22.263Z,16.57
2018-04-18T21:06:51.515Z,16.80
2018-04-18T21:09:20.805Z,17.10
2018-04-18T21:11:50.815Z,17.40
2018-04-18T21:14:20.041Z,18.40
2018-04-18T21:16:50.074Z,17.93
2018-04-18T21:19:20.074Z,16.40
2018-04-18T21:21:49.347Z,17.17
2018-04-18T21:24:18.614Z,15.57
2018-04-18T21:26:47.910Z,16.70
2018-04-18T21:29:17.139Z,16.67
2018-04-18T21:31:46.376Z,14.80
2018-04-18T21:34:16.390Z,14.50
2018-04-18T21:36:46.414Z,14.97
2018-04-18T21:39:16.426Z,15.37
2018-04-18T21:41:45.656Z,16.63
2018-04-18T21:44:14.929Z,14.67
2018-04-18T21:46:44.201Z,14.73
2018-04-18T21:49:13.501Z,15.57
2018-04-18T21:51:42.697Z,15.63
2018-04-18T21:54:11.909Z,15.97
2018-04-18T21:56:41.895Z,15.53
2018-04-18T21:59:11.129Z,14.73
2018-04-18T22:01:41.122Z,14.67
2018-04-18T22:04:10.400Z,14.20
2018-04-18T22:06:39.643Z,13.80
2018-04-18T22:09:09.649Z,15.57
2018-04-18T22:11:39.690Z,15.23
2018-04-18T22:14:09.014Z,15.80
2018-04-18T22:16:38.209Z,14.90
2018-04-18T22:19:07.544Z,14.30
2018-04-18T22:21:36.752Z,13.90
2018-04-18T22:24:05.974Z,15.47
2018-04-18T22:26:35.189Z,16.43
2018-04-18T22:29:04.449Z,14.73
2018-04-18T22:31:33.664Z,13.97
2018-04-18T22:34:02.921Z,14.47
2018-04-18T22:36:32.130Z,13.63
2018-04-18T22:39:01.364Z,14.43
2018-04-18T22:41:31.341Z,14.23
2018-04-18T22:44:00.564Z,13.20
2018-04-18T22:46:30.589Z,12.67
2018-04-18T22:48:59.853Z,12.33
2018-04-18T22:51:29.865Z,12.37
2018-04-18T22:53:59.478Z,11.93
2018-04-18T22:56:28.740Z,11.80
2018-04-18T22:58:57.951Z,10.70
2018-04-18T23:01:27.199Z,13.30
2018-04-18T23:03:57.172Z,11.90
2018-04-18T23:06:26.796Z,11.13
2018-04-18T23:08:56.041Z,12.10
2018-04-18T23:11:25.287Z,10.10
2018-04-18T23:13:54.505Z,9.60
2018-04-18T23:16:24.502Z,10.13
2018-04-18T23:18:53.725Z,9.73
2018-04-18T23:21:22.932Z,10.23
2018-04-18T23:23:52.150Z,8.83
2018-04-18T23:26:21.391Z,9.40
2018-04-18T23:28:50.600Z,11.30
2018-04-18T23:31:20.626Z,9.23
2018-04-18T23:33:50.612Z,11.50
2018-04-18T23:36:20.035Z,10.17
2018-04-18T23:38:50.091Z,9.97
2018-04-18T23:41:19.406Z,8.80
2018-04-18T23:43:48.621Z,8.23
2018-04-18T23:46:17.890Z,8.67
2018-04-18T23:48:47.153Z,8.07
2018-04-18T23:51:16.373Z,7.90
2018-04-18T23:53:46.353Z,10.70
2018-04-18T23:56:15.598Z,11.73
2018-04-18T23:58:44.922Z,11.10
